Time;durP1;ratioP1;P1;durP2;ratioP2;P2;SDS_P1;SDS_P2;PMS_P1;PMS_P2;Temp;Humidity;BMP_temperature;BMP_pressure;BME280_temperature;BME280_humidity;BME280_pressure;Samples;Min_cycle;Max_cycle;Signal;HPM_P1;HPM_P2
2021/08/29 00:00:18;;;;;;;17.67;10.90;;;;;;;;;;5013154;28;20152;-43
2021/08/29 00:02:44;;;;;;;24.92;15.23;;;;;;;;;;5012826;28;20109;-47
2021/08/29 00:05:10;;;;;;;25.13;12.60;;;;;;;;;;5013092;28;20049;-45
2021/08/29 00:07:36;;;;;;;29.23;15.88;;;;;;;;;;5012893;28;20034;-44
2021/08/29 00:10:02;;;;;;;44.70;22.95;;;;;;;;;;5014020;28;20046;-46
2021/08/29 00:12:28;;;;;;;37.95;19.23;;;;;;;;;;5016539;28;20040;-49
2021/08/29 00:14:54;;;;;;;37.88;21.20;;;;;;;;;;5016480;28;20022;-48
2021/08/29 00:17:20;;;;;;;29.70;16.83;;;;;;;;;;5016513;28;20017;-47
2021/08/29 00:19:47;;;;;;;29.42;16.75;;;;;;;;;;5016680;28;20030;-48
2021/08/29 00:22:13;;;;;;;18.52;11.07;;;;;;;;;;5016317;28;20029;-47
2021/08/29 00:24:39;;;;;;;20.85;12.90;;;;;;;;;;5016390;28;20533;-44
2021/08/29 00:27:05;;;;;;;64.95;35.05;;;;;;;;;;5016161;28;20117;-46
2021/08/29 00:29:31;;;;;;;33.35;19.33;;;;;;;;;;5016269;28;20360;-49
2021/08/29 00:31:57;;;;;;;23.48;12.85;;;;;;;;;;5016250;28;20030;-49
2021/08/29 00:34:26;;;;;;;34.88;19.80;;;;;;;;;;5015911;28;20536;-47
2021/08/29 00:36:52;;;;;;;24.23;15.55;;;;;;;;;;5016119;28;20030;-48
2021/08/29 00:39:18;;;;;;;26.20;12.32;;;;;;;;;;5016039;28;20450;-48
2021/08/29 00:41:45;;;;;;;42.85;19.00;;;;;;;;;;5015979;28;20038;-45
2021/08/29 00:44:15;;;;;;;16.88;9.52;;;;;;;;;;5016011;28;20022;-48
2021/08/29 00:46:42;;;;;;;38.70;20.95;;;;;;;;;;5015784;28;20108;-48
2021/08/29 00:49:11;;;;;;;34.38;16.67;;;;;;;;;;5016116;28;20465;-47
2021/08/29 00:51:37;;;;;;;30.23;15.30;;;;;;;;;;5015818;28;20022;-47
2021/08/29 00:54:03;;;;;;;43.40;22.23;;;;;;;;;;5015889;28;20080;-44
2021/08/29 00:56:29;;;;;;;39.85;22.15;;;;;;;;;;5015768;28;20105;-46
2021/08/29 00:58:59;;;;;;;39.75;20.75;;;;;;;;;;5015707;28;20373;-44
2021/08/29 01:01:43;;;;;;;41.10;19.23;;;;;;;;;;5015655;28;20026;-45
2021/08/29 01:04:13;;;;;;;42.08;23.00;;;;;;;;;;5015614;28;20022;-46
2021/08/29 01:06:43;;;;;;;27.92;16.23;;;;;;;;;;5015502;28;20192;-46
2021/08/29 01:09:11;;;;;;;42.63;22.35;;;;;;;;;;5015261;28;20054;-48
2021/08/29 01:11:39;;;;;;;74.80;39.22;;;;;;;;;;5015468;28;20037;-47
2021/08/29 01:14:05;;;;;;;28.58;16.05;;;;;;;;;;5015361;28;20069;-47
2021/08/29 01:16:34;;;;;;;46.67;23.70;;;;;;;;;;5015527;28;20371;-48
2021/08/29 01:19:01;;;;;;;46.03;26.83;;;;;;;;;;5015155;28;20033;-43
2021/08/29 01:21:29;;;;;;;21.92;11.38;;;;;;;;;;5015128;28;20026;-47
2021/08/29 01:23:57;;;;;;;25.60;14.00;;;;;;;;;;5015266;28;20022;-46
2021/08/29 01:26:35;;;;;;;24.30;12.57;;;;;;;;;;5015485;28;20030;-48
2021/08/29 01:29:04;;;;;;;25.20;15.23;;;;;;;;;;5015121;28;20105;-47
2021/08/29 01:31:32;;;;;;;16.27;10.60;;;;;;;;;;5015099;28;20029;-47
2021/08/29 01:34:01;;;;;;;28.50;15.40;;;;;;;;;;5015020;28;20022;-48
2021/08/29 01:36:27;;;;;;;45.95;28.63;;;;;;;;;;5014924;28;20040;-48
2021/08/29 01:38:54;;;;;;;28.33;18.33;;;;;;;;;;5014830;28;20037;-48
2021/08/29 01:41:20;;;;;;;80.10;49.30;;;;;;;;;;5014826;28;20387;-48
2021/08/29 01:43:46;;;;;;;27.83;15.55;;;;;;;;;;5014949;28;20060;-46
2021/08/29 01:46:13;;;;;;;33.60;20.40;;;;;;;;;;5014993;28;20438;-45
2021/08/29 01:48:40;;;;;;;26.90;16.20;;;;;;;;;;5014792;28;20095;-49
2021/08/29 01:51:07;;;;;;;31.58;18.70;;;;;;;;;;5014928;28;20022;-49
2021/08/29 01:53:33;;;;;;;27.88;16.88;;;;;;;;;;5014657;28;20041;-47
2021/08/29 01:56:01;;;;;;;11.95;7.68;;;;;;;;;;5014978;28;20022;-46
2021/08/29 01:58:27;;;;;;;16.67;10.70;;;;;;;;;;5013363;28;20041;-48
2021/08/29 02:00:57;;;;;;;11.00;7.32;;;;;;;;;;5014787;28;20018;-48
2021/08/29 02:03:23;;;;;;;14.95;10.30;;;;;;;;;;5014548;28;20053;-45
2021/08/29 02:05:52;;;;;;;17.08;11.63;;;;;;;;;;5014555;28;20018;-47
2021/08/29 02:08:18;;;;;;;12.00;7.70;;;;;;;;;;5014521;28;20033;-46
2021/08/29 02:10:48;;;;;;;10.93;6.82;;;;;;;;;;5014223;28;20514;-45
2021/08/29 02:13:16;;;;;;;13.60;8.70;;;;;;;;;;5014602;28;20413;-47
2021/08/29 02:15:45;;;;;;;20.08;13.02;;;;;;;;;;5014471;28;20036;-47
2021/08/29 02:18:12;;;;;;;9.18;6.85;;;;;;;;;;5014252;28;20046;-46
2021/08/29 02:20:39;;;;;;;12.75;8.80;;;;;;;;;;5014501;28;20034;-49
2021/08/29 02:23:06;;;;;;;8.32;5.93;;;;;;;;;;5014194;28;20075;-44
2021/08/29 02:25:32;;;;;;;12.70;7.70;;;;;;;;;;5014214;28;20055;-46
2021/08/29 02:27:58;;;;;;;9.80;6.07;;;;;;;;;;5014535;28;20131;-45
2021/08/29 02:30:25;;;;;;;13.30;8.18;;;;;;;;;;5014197;28;20029;-45
2021/08/29 02:32:52;;;;;;;13.05;7.25;;;;;;;;;;5013566;28;20033;-46
2021/08/29 02:35:19;;;;;;;13.52;8.23;;;;;;;;;;5014101;28;20022;-45
2021/08/29 02:37:45;;;;;;;12.45;8.57;;;;;;;;;;5013996;28;20018;-47
2021/08/29 02:40:12;;;;;;;9.23;6.47;;;;;;;;;;5013769;28;20038;-47
2021/08/29 02:42:40;;;;;;;9.02;6.70;;;;;;;;;;5014074;28;20041;-48
2021/08/29 02:45:07;;;;;;;6.97;5.18;;;;;;;;;;5013886;28;20103;-46
2021/08/29 02:47:33;;;;;;;10.70;6.47;;;;;;;;;;5013838;28;20184;-47
2021/08/29 02:49:59;;;;;;;7.25;5.18;;;;;;;;;;5013950;28;20018;-49
2021/08/29 02:52:26;;;;;;;13.30;6.15;;;;;;;;;;5014066;28;20382;-46
2021/08/29 02:54:53;;;;;;;10.80;6.53;;;;;;;;;;5013941;28;20033;-46
2021/08/29 02:57:21;;;;;;;6.55;4.95;;;;;;;;;;5013886;28;20029;-49
2021/08/29 02:59:49;;;;;;;9.18;4.72;;;;;;;;;;5013994;28;20029;-46
2021/08/29 03:02:15;;;;;;;5.75;4.93;;;;;;;;;;5013636;28;20022;-44
2021/08/29 03:04:42;;;;;;;7.57;5.10;;;;;;;;;;5013739;28;20018;-45
2021/08/29 03:07:08;;;;;;;6.75;4.32;;;;;;;;;;5013748;28;20034;-48
2021/08/29 03:09:34;;;;;;;9.95;5.47;;;;;;;;;;5013315;28;20125;-45
2021/08/29 03:12:11;;;;;;;6.63;4.85;;;;;;;;;;5013728;28;20041;-47
2021/08/29 03:14:40;;;;;;;6.93;4.82;;;;;;;;;;5012316;28;20065;-46
2021/08/29 03:17:07;;;;;;;7.45;5.40;;;;;;;;;;5013659;28;20033;-46
2021/08/29 03:19:34;;;;;;;7.50;5.00;;;;;;;;;;5013609;28;20018;-46
2021/08/29 03:22:00;;;;;;;7.43;5.50;;;;;;;;;;5013504;28;20032;-46
2021/08/29 03:24:27;;;;;;;7.57;4.38;;;;;;;;;;5013443;28;20037;-46
2021/08/29 03:26:53;;;;;;;6.82;4.88;;;;;;;;;;5013494;28;20536;-47
2021/08/29 03:29:19;;;;;;;6.18;4.07;;;;;;;;;;5013667;28;20030;-48
2021/08/29 03:31:46;;;;;;;6.13;4.43;;;;;;;;;;5013506;28;20367;-48
2021/08/29 03:34:13;;;;;;;5.28;3.85;;;;;;;;;;5013241;28;20033;-47
2021/08/29 03:36:41;;;;;;;5.95;4.70;;;;;;;;;;5013418;28;20156;-47
2021/08/29 03:39:07;;;;;;;5.47;4.13;;;;;;;;;;5013315;28;20022;-47
2021/08/29 03:41:35;;;;;;;6.85;4.72;;;;;;;;;;5013486;28;20397;-47
2021/08/29 03:44:01;;;;;;;6.63;4.30;;;;;;;;;;5014864;28;20022;-47
2021/08/29 03:46:30;;;;;;;5.70;4.25;;;;;;;;;;5017189;28;20053;-47
2021/08/29 03:48:56;;;;;;;5.05;4.20;;;;;;;;;;5017181;28;20152;-48
2021/08/29 03:51:22;;;;;;;6.88;4.30;;;;;;;;;;5017098;28;20034;-47
2021/08/29 03:53:51;;;;;;;8.13;4.97;;;;;;;;;;5016936;28;20026;-46
2021/08/29 03:56:17;;;;;;;8.23;3.70;;;;;;;;;;5016961;28;20525;-46
2021/08/29 03:58:43;;;;;;;8.48;3.90;;;;;;;;;;5016892;28;20030;-46
2021/08/29 04:01:11;;;;;;;8.73;4.90;;;;;;;;;;5016888;28;20036;-46
2021/08/29 04:03:37;;;;;;;5.97;4.30;;;;;;;;;;5017077;28;20041;-46
2021/08/29 04:06:04;;;;;;;6.90;4.00;;;;;;;;;;5016631;28;20493;-47
2021/08/29 04:08:34;;;;;;;5.13;4.53;;;;;;;;;;5016570;28;20080;-47
2021/08/29 04:11:01;;;;;;;6.85;4.85;;;;;;;;;;5016467;28;20077;-47
2021/08/29 04:13:30;;;;;;;6.07;5.03;;;;;;;;;;5016702;28;20076;-48
2021/08/29 04:15:56;;;;;;;6.43;4.40;;;;;;;;;;5016685;28;20041;-48
2021/08/29 04:18:23;;;;;;;7.63;4.80;;;;;;;;;;5016600;28;20105;-49
2021/08/29 04:20:49;;;;;;;6.82;4.93;;;;;;;;;;5016431;28;20047;-48
2021/08/29 04:23:18;;;;;;;8.07;4.30;;;;;;;;;;5016358;28;20018;-47
2021/08/29 04:25:44;;;;;;;5.82;4.68;;;;;;;;;;5016539;28;20160;-46
2021/08/29 04:28:10;;;;;;;6.57;4.45;;;;;;;;;;5016234;28;20092;-47
2021/08/29 04:30:40;;;;;;;6.03;4.00;;;;;;;;;;5016362;28;20022;-48
2021/08/29 04:33:06;;;;;;;6.75;4.07;;;;;;;;;;5016480;28;20030;-46
2021/08/29 04:35:33;;;;;;;8.15;4.28;;;;;;;;;;5016219;28;20489;-46
2021/08/29 04:37:59;;;;;;;5.85;3.90;;;;;;;;;;5014811;28;20037;-47
2021/08/29 04:40:25;;;;;;;6.55;4.13;;;;;;;;;;5016070;28;20427;-46
2021/08/29 04:42:51;;;;;;;6.60;4.47;;;;;;;;;;5016203;28;20034;-47
2021/08/29 04:45:17;;;;;;;8.25;4.47;;;;;;;;;;5016145;28;20097;-47
2021/08/29 04:47:43;;;;;;;5.57;4.18;;;;;;;;;;5015955;28;20041;-45
2021/08/29 04:50:09;;;;;;;5.15;4.43;;;;;;;;;;5016015;28;20041;-46
2021/08/29 04:52:35;;;;;;;6.07;4.63;;;;;;;;;;5015886;28;20489;-46
2021/08/29 04:55:01;;;;;;;9.30;4.25;;;;;;;;;;5015434;28;20080;-48
2021/08/29 04:57:27;;;;;;;5.32;3.85;;;;;;;;;;5015884;28;20030;-46
2021/08/29 04:59:53;;;;;;;6.95;4.65;;;;;;;;;;5015939;28;20030;-47
2021/08/29 05:02:22;;;;;;;5.68;4.13;;;;;;;;;;5015837;28;20375;-46
2021/08/29 05:04:48;;;;;;;8.82;4.30;;;;;;;;;;5015674;28;20030;-47
2021/08/29 05:07:16;;;;;;;6.70;4.63;;;;;;;;;;5015465;28;20045;-47
2021/08/29 05:09:42;;;;;;;9.07;5.28;;;;;;;;;;5015394;28;20037;-47
2021/08/29 05:12:08;;;;;;;7.82;5.05;;;;;;;;;;5015789;28;20045;-46
2021/08/29 05:14:34;;;;;;;5.32;4.63;;;;;;;;;;5015594;28;20018;-46
2021/08/29 05:17:00;;;;;;;7.40;4.68;;;;;;;;;;5015509;28;20053;-45
2021/08/29 05:19:29;;;;;;;5.90;4.90;;;;;;;;;;5015550;28;20105;-47
2021/08/29 05:21:55;;;;;;;6.82;5.25;;;;;;;;;;5015342;28;20026;-47
2021/08/29 05:24:21;;;;;;;7.63;5.07;;;;;;;;;;5015448;28;20057;-45
2021/08/29 05:26:47;;;;;;;6.43;5.32;;;;;;;;;;5015404;28;20084;-47
2021/08/29 05:29:13;;;;;;;8.20;4.53;;;;;;;;;;5015273;28;20030;-45
2021/08/29 05:31:39;;;;;;;5.32;4.80;;;;;;;;;;5015304;28;20462;-42
2021/08/29 05:34:05;;;;;;;8.50;5.20;;;;;;;;;;5015260;28;20076;-47
2021/08/29 05:36:31;;;;;;;6.28;4.70;;;;;;;;;;5014919;28;20056;-47
2021/08/29 05:38:57;;;;;;;9.57;5.13;;;;;;;;;;5014884;28;20398;-44
2021/08/29 05:41:26;;;;;;;6.20;5.03;;;;;;;;;;5015009;28;20474;-44
2021/08/29 05:43:52;;;;;;;5.32;4.35;;;;;;;;;;5015106;28;20022;-45
2021/08/29 05:46:20;;;;;;;5.90;5.00;;;;;;;;;;5014875;28;20491;-49
2021/08/29 05:48:47;;;;;;;12.10;7.10;;;;;;;;;;5014905;28;20057;-50
2021/08/29 05:51:13;;;;;;;19.27;13.02;;;;;;;;;;5014733;28;20064;-46
2021/08/29 05:53:40;;;;;;;35.72;21.08;;;;;;;;;;5014892;28;20030;-45
2021/08/29 05:56:06;;;;;;;21.88;12.32;;;;;;;;;;5014688;28;20108;-48
2021/08/29 05:58:32;;;;;;;19.42;11.38;;;;;;;;;;5014711;28;20030;-48
2021/08/29 06:01:00;;;;;;;22.20;11.57;;;;;;;;;;5014741;28;20393;-47
2021/08/29 06:03:30;;;;;;;8.85;5.85;;;;;;;;;;5014670;28;20028;-48
2021/08/29 06:05:57;;;;;;;13.75;9.52;;;;;;;;;;5014449;28;20029;-45
2021/08/29 06:08:23;;;;;;;13.40;7.82;;;;;;;;;;5013404;28;20120;-46
2021/08/29 06:10:49;;;;;;;23.65;14.52;;;;;;;;;;5014305;28;20141;-45
2021/08/29 06:13:15;;;;;;;13.00;8.75;;;;;;;;;;5014367;28;20382;-48
2021/08/29 06:15:41;;;;;;;9.70;6.95;;;;;;;;;;5014545;28;20018;-48
2021/08/29 06:18:08;;;;;;;15.25;9.05;;;;;;;;;;5014414;28;20026;-46
2021/08/29 06:20:34;;;;;;;9.75;7.57;;;;;;;;;;5014257;28;20022;-46
2021/08/29 06:23:00;;;;;;;13.35;6.90;;;;;;;;;;5014170;28;20026;-45
2021/08/29 06:25:26;;;;;;;12.95;7.43;;;;;;;;;;5014203;28;20021;-45
2021/08/29 06:27:52;;;;;;;10.02;6.82;;;;;;;;;;5014265;28;20038;-49
2021/08/29 06:30:18;;;;;;;6.72;5.03;;;;;;;;;;5014427;28;20021;-47
2021/08/29 06:32:44;;;;;;;8.15;5.97;;;;;;;;;;5014204;28;20073;-46
2021/08/29 06:35:11;;;;;;;7.22;5.40;;;;;;;;;;5014058;28;20029;-45
2021/08/29 06:37:37;;;;;;;9.70;7.07;;;;;;;;;;5014017;28;20029;-46
2021/08/29 06:40:03;;;;;;;9.23;5.82;;;;;;;;;;5013878;28;20474;-48
2021/08/29 06:42:30;;;;;;;10.88;6.40;;;;;;;;;;5013958;28;20034;-48
2021/08/29 06:44:56;;;;;;;9.02;5.35;;;;;;;;;;5014076;28;20041;-44
2021/08/29 06:47:22;;;;;;;4.70;4.20;;;;;;;;;;5014021;28;20073;-48
2021/08/29 06:49:48;;;;;;;7.63;4.72;;;;;;;;;;5013842;28;20029;-48
2021/08/29 06:52:14;;;;;;;5.65;3.97;;;;;;;;;;5013814;28;20112;-48
2021/08/29 06:54:40;;;;;;;8.02;4.78;;;;;;;;;;5013974;28;20437;-47
2021/08/29 06:57:06;;;;;;;6.20;4.60;;;;;;;;;;5014415;28;20108;-48
2021/08/29 06:59:32;;;;;;;12.48;7.43;;;;;;;;;;5013853;28;20028;-48
2021/08/29 07:01:58;;;;;;;6.75;4.60;;;;;;;;;;5013662;28;20482;-49
2021/08/29 07:04:24;;;;;;;10.55;6.10;;;;;;;;;;5013767;28;20105;-48
2021/08/29 07:06:50;;;;;;;4.88;4.20;;;;;;;;;;5013473;28;20037;-48
2021/08/29 07:09:17;;;;;;;7.00;4.47;;;;;;;;;;5013318;28;20088;-49
2021/08/29 07:11:43;;;;;;;3.72;3.30;;;;;;;;;;5013828;28;20076;-47
2021/08/29 07:14:09;;;;;;;7.03;3.83;;;;;;;;;;5013552;28;20021;-48
2021/08/29 07:16:35;;;;;;;7.10;3.55;;;;;;;;;;5013587;28;20074;-49
2021/08/29 07:19:01;;;;;;;9.25;3.67;;;;;;;;;;5015010;28;20061;-49
2021/08/29 07:21:27;;;;;;;5.88;3.45;;;;;;;;;;5017528;28;20485;-45
2021/08/29 07:23:53;;;;;;;4.50;3.40;;;;;;;;;;5017521;28;20084;-48
2021/08/29 07:26:19;;;;;;;4.32;3.00;;;;;;;;;;5017752;28;20022;-49
2021/08/29 07:28:45;;;;;;;14.35;7.72;;;;;;;;;;5017534;28;20034;-47
2021/08/29 07:31:12;;;;;;;17.40;9.75;;;;;;;;;;5017374;28;20025;-46
2021/08/29 07:33:39;;;;;;;26.40;14.25;;;;;;;;;;5017505;28;20528;-48
2021/08/29 07:36:05;;;;;;;17.50;9.95;;;;;;;;;;5017201;28;20084;-46
2021/08/29 07:38:31;;;;;;;19.77;11.73;;;;;;;;;;5017007;28;20029;-49
2021/08/29 07:40:57;;;;;;;18.95;11.45;;;;;;;;;;5017276;28;20053;-49
2021/08/29 07:43:23;;;;;;;8.52;5.32;;;;;;;;;;5001976;28;20161;-49
2021/08/29 07:45:50;;;;;;;14.77;9.18;;;;;;;;;;4997300;28;20023;-48
2021/08/29 07:48:16;;;;;;;11.95;7.75;;;;;;;;;;4996934;28;20121;-48
2021/08/29 07:50:46;;;;;;;27.15;15.05;;;;;;;;;;4996808;28;20474;-48
2021/08/29 07:53:13;;;;;;;29.48;17.05;;;;;;;;;;4996968;28;20054;-44
2021/08/29 07:55:39;;;;;;;45.17;26.95;;;;;;;;;;4996673;28;20018;-44
2021/08/29 07:58:05;;;;;;;32.50;17.92;;;;;;;;;;4996840;28;20022;-45
2021/08/29 08:00:31;;;;;;;36.08;18.92;;;;;;;;;;4996858;28;20022;-46
2021/08/29 08:02:57;;;;;;;12.23;7.32;;;;;;;;;;4996754;28;20022;-46
2021/08/29 08:05:23;;;;;;;5.38;4.25;;;;;;;;;;4996704;28;20030;-49
2021/08/29 08:07:52;;;;;;;6.90;3.80;;;;;;;;;;4996464;28;20034;-49
2021/08/29 08:10:21;;;;;;;12.82;4.60;;;;;;;;;;4996304;28;20056;-49
2021/08/29 08:12:47;;;;;;;19.52;11.00;;;;;;;;;;4994538;28;20033;-45
2021/08/29 08:15:13;;;;;;;13.82;8.60;;;;;;;;;;4996517;28;20018;-48
2021/08/29 08:17:40;;;;;;;12.00;7.13;;;;;;;;;;4996511;28;20037;-49
2021/08/29 08:20:07;;;;;;;14.82;9.73;;;;;;;;;;4996624;28;20019;-48
2021/08/29 08:22:33;;;;;;;6.32;4.32;;;;;;;;;;4996756;28;20036;-49
2021/08/29 08:24:59;;;;;;;7.80;4.68;;;;;;;;;;4996958;28;20033;-48
2021/08/29 08:27:26;;;;;;;14.73;6.90;;;;;;;;;;4996097;28;20482;-47
2021/08/29 08:29:52;;;;;;;12.73;6.20;;;;;;;;;;4995475;28;20098;-47
2021/08/29 08:32:18;;;;;;;8.82;4.63;;;;;;;;;;4995882;28;20461;-50
2021/08/29 08:34:44;;;;;;;12.38;5.35;;;;;;;;;;4996112;28;20022;-50
2021/08/29 08:37:10;;;;;;;62.15;28.45;;;;;;;;;;4995715;28;20022;-52
2021/08/29 08:39:36;;;;;;;13.88;6.88;;;;;;;;;;4995914;28;20467;-46
2021/08/29 08:42:07;;;;;;;17.77;9.77;;;;;;;;;;4995943;28;20023;-47
2021/08/29 08:44:33;;;;;;;22.40;11.63;;;;;;;;;;4995996;28;20034;-50
2021/08/29 08:47:02;;;;;;;18.15;8.85;;;;;;;;;;4995851;28;20076;-49
2021/08/29 08:49:28;;;;;;;17.83;9.68;;;;;;;;;;4995812;28;20068;-55
2021/08/29 08:51:57;;;;;;;46.47;25.50;;;;;;;;;;4995666;28;20098;-48
2021/08/29 08:54:23;;;;;;;75.25;40.67;;;;;;;;;;4995808;28;20534;-47
2021/08/29 08:56:52;;;;;;;45.85;27.08;;;;;;;;;;4995724;28;20041;-49
2021/08/29 08:59:18;;;;;;;26.42;13.82;;;;;;;;;;4995721;28;20025;-48
2021/08/29 09:01:44;;;;;;;71.30;41.90;;;;;;;;;;4995549;28;20018;-44
2021/08/29 09:04:11;;;;;;;12.02;7.68;;;;;;;;;;4995434;28;20026;-50
2021/08/29 09:06:37;;;;;;;24.52;13.48;;;;;;;;;;4995451;28;20094;-49
2021/08/29 09:09:06;;;;;;;11.93;5.30;;;;;;;;;;4995077;28;20088;-45
2021/08/29 09:11:33;;;;;;;18.70;7.13;;;;;;;;;;4995439;28;20026;-50
2021/08/29 09:13:59;;;;;;;23.63;7.45;;;;;;;;;;4995413;28;20065;-47
2021/08/29 09:16:27;;;;;;;9.40;2.75;;;;;;;;;;4995488;28;20061;-47
2021/08/29 09:18:55;;;;;;;7.53;2.45;;;;;;;;;;4995336;28;20033;-46
2021/08/29 09:21:41;;;;;;;13.80;5.90;;;;;;;;;;4994869;28;20407;-47
2021/08/29 09:24:10;;;;;;;19.00;12.55;;;;;;;;;;4994269;28;20109;-48
2021/08/29 09:26:40;;;;;;;9.65;6.60;;;;;;;;;;4992826;28;20037;-47
2021/08/29 09:29:07;;;;;;;81.70;30.40;;;;;;;;;;4995121;28;20116;-47
2021/08/29 09:31:43;;;;;;;49.97;17.33;;;;;;;;;;4995091;28;20050;-46
2021/08/29 09:34:09;;;;;;;274.35;176.35;;;;;;;;;;4994761;28;20034;-46
2021/08/29 09:36:38;;;;;;;23.50;13.30;;;;;;;;;;4995006;28;20119;-45
2021/08/29 09:39:12;;;;;;;41.47;23.02;;;;;;;;;;4994901;28;20027;-46
2021/08/29 09:41:38;;;;;;;112.30;58.72;;;;;;;;;;4992578;28;20026;-49
2021/08/29 09:44:17;;;;;;;231.02;150.25;;;;;;;;;;4994836;28;20501;-50
2021/08/29 09:46:51;;;;;;;199.48;79.70;;;;;;;;;;4993343;28;20097;-46
2021/08/29 09:49:30;;;;;;;296.23;188.55;;;;;;;;;;4992425;28;20042;-46
2021/08/29 09:51:57;;;;;;;51.40;27.02;;;;;;;;;;4992558;28;20034;-46
2021/08/29 09:54:34;;;;;;;27.98;13.40;;;;;;;;;;4995216;28;20031;-47
2021/08/29 09:57:00;;;;;;;120.45;69.63;;;;;;;;;;4994960;28;20030;-45
2021/08/29 09:59:43;;;;;;;19.65;10.73;;;;;;;;;;4995083;28;20023;-44
2021/08/29 10:02:11;;;;;;;93.20;57.72;;;;;;;;;;4994991;28;20426;-45
2021/08/29 10:04:39;;;;;;;314.10;180.10;;;;;;;;;;4994913;28;20026;-46
2021/08/29 10:07:09;;;;;;;116.43;61.55;;;;;;;;;;4994733;28;20507;-47
2021/08/29 10:09:36;;;;;;;66.75;40.35;;;;;;;;;;4994441;28;20049;-47
2021/08/29 10:12:03;;;;;;;65.72;31.13;;;;;;;;;;4993627;28;20035;-53
2021/08/29 10:14:30;;;;;;;80.45;41.35;;;;;;;;;;4994598;28;20022;-49
2021/08/29 10:16:58;;;;;;;36.08;15.57;;;;;;;;;;4994693;28;20022;-48
2021/08/29 10:19:24;;;;;;;68.38;35.60;;;;;;;;;;4994639;28;20054;-47
2021/08/29 10:21:53;;;;;;;44.90;19.33;;;;;;;;;;4994531;28;20018;-49
2021/08/29 10:24:20;;;;;;;32.30;14.80;;;;;;;;;;4994343;28;20029;-48
2021/08/29 10:26:49;;;;;;;46.83;22.90;;;;;;;;;;4994387;28;20023;-49
2021/08/29 10:29:18;;;;;;;16.08;9.35;;;;;;;;;;4994366;28;20475;-49
2021/08/29 10:31:48;;;;;;;27.95;12.63;;;;;;;;;;4994586;28;20045;-48
2021/08/29 10:34:15;;;;;;;17.48;11.30;;;;;;;;;;4994504;28;20058;-49
2021/08/29 10:36:41;;;;;;;18.75;8.90;;;;;;;;;;4994302;28;20109;-48
2021/08/29 10:39:07;;;;;;;12.75;6.88;;;;;;;;;;4994089;28;20033;-47
2021/08/29 10:41:34;;;;;;;19.95;13.65;;;;;;;;;;4994251;28;20531;-49
2021/08/29 10:44:00;;;;;;;26.98;12.63;;;;;;;;;;4994117;28;20041;-49
2021/08/29 10:46:27;;;;;;;14.75;9.48;;;;;;;;;;4994088;28;20479;-50
2021/08/29 10:48:56;;;;;;;10.35;6.50;;;;;;;;;;4994100;28;20034;-49
2021/08/29 10:51:26;;;;;;;36.15;20.80;;;;;;;;;;4993990;28;20019;-46
2021/08/29 10:53:56;;;;;;;28.52;15.98;;;;;;;;;;4993463;28;20098;-47
2021/08/29 10:56:29;;;;;;;12.30;7.00;;;;;;;;;;4993929;28;20026;-48
2021/08/29 10:59:12;;;;;;;11.30;7.13;;;;;;;;;;4994131;28;20037;-48
2021/08/29 11:01:38;;;;;;;56.70;34.03;;;;;;;;;;4993863;28;20022;-48
2021/08/29 11:04:22;;;;;;;27.10;15.98;;;;;;;;;;4993917;28;20028;-50
2021/08/29 11:07:06;;;;;;;18.40;9.63;;;;;;;;;;4993772;28;20027;-49
2021/08/29 11:09:35;;;;;;;8.82;4.78;;;;;;;;;;4993719;28;20125;-49
2021/08/29 11:12:06;;;;;;;27.95;14.35;;;;;;;;;;4993897;28;20058;-48
2021/08/29 11:14:44;;;;;;;38.40;18.10;;;;;;;;;;4993994;28;20026;-48
2021/08/29 11:17:14;;;;;;;45.38;19.20;;;;;;;;;;4993784;28;20014;-52
2021/08/29 11:19:41;;;;;;;21.70;10.60;;;;;;;;;;4993831;28;20033;-52
2021/08/29 11:22:07;;;;;;;22.70;8.70;;;;;;;;;;4993722;28;20158;-51
2021/08/29 11:24:45;;;;;;;13.13;4.97;;;;;;;;;;4993801;28;20475;-52
2021/08/29 11:27:31;;;;;;;82.53;35.58;;;;;;;;;;4993680;28;20022;-46
2021/08/29 11:29:57;;;;;;;25.70;10.93;;;;;;;;;;4993615;28;20478;-52
2021/08/29 11:32:45;;;;;;;12.20;6.50;;;;;;;;;;4993687;28;20069;-49
2021/08/29 11:35:11;;;;;;;28.73;12.50;;;;;;;;;;4993594;28;20031;-52
2021/08/29 11:37:37;;;;;;;50.55;19.05;;;;;;;;;;4993561;28;20475;-51
2021/08/29 11:40:05;;;;;;;18.35;10.25;;;;;;;;;;4993357;28;20034;-47
2021/08/29 11:42:31;;;;;;;12.50;7.00;;;;;;;;;;4993750;28;20097;-51
2021/08/29 11:44:58;;;;;;;23.38;11.20;;;;;;;;;;4993728;28;20352;-50
2021/08/29 11:47:25;;;;;;;12.00;5.68;;;;;;;;;;4993502;28;20031;-51
2021/08/29 11:49:55;;;;;;;10.63;6.22;;;;;;;;;;4993516;28;20034;-51
2021/08/29 11:52:28;;;;;;;6.50;3.97;;;;;;;;;;4993399;28;20022;-48
2021/08/29 11:55:04;;;;;;;11.38;4.93;;;;;;;;;;4993485;28;20126;-48
2021/08/29 11:57:30;;;;;;;47.03;32.10;;;;;;;;;;4993375;28;20030;-50
2021/08/29 12:00:07;;;;;;;31.35;18.80;;;;;;;;;;4993295;28;20031;-47
2021/08/29 12:02:42;;;;;;;40.22;25.02;;;;;;;;;;4993398;28;20022;-50
2021/08/29 12:05:12;;;;;;;43.97;26.73;;;;;;;;;;4994828;28;20026;-52
2021/08/29 12:07:38;;;;;;;56.88;33.85;;;;;;;;;;4997087;28;20032;-49
2021/08/29 12:10:05;;;;;;;35.88;21.65;;;;;;;;;;4996699;28;20056;-52
2021/08/29 12:12:32;;;;;;;33.63;20.13;;;;;;;;;;4997051;28;20105;-53
2021/08/29 12:15:00;;;;;;;22.20;13.45;;;;;;;;;;4996927;28;20025;-50
2021/08/29 12:17:28;;;;;;;22.27;13.88;;;;;;;;;;4996961;28;20062;-51
2021/08/29 12:19:54;;;;;;;8.88;6.03;;;;;;;;;;4996702;28;20057;-52
2021/08/29 12:22:21;;;;;;;38.03;20.30;;;;;;;;;;4995618;28;20022;-52
2021/08/29 12:24:48;;;;;;;39.35;18.77;;;;;;;;;;4996260;28;20030;-50
2021/08/29 12:27:19;;;;;;;22.75;13.73;;;;;;;;;;4996166;28;20022;-52
2021/08/29 12:29:46;;;;;;;70.30;34.20;;;;;;;;;;4996260;28;20463;-52
2021/08/29 12:32:16;;;;;;;18.13;10.93;;;;;;;;;;4993654;28;20493;-52
2021/08/29 12:34:42;;;;;;;30.80;17.75;;;;;;;;;;4996395;28;20042;-51
2021/08/29 12:37:12;;;;;;;32.70;17.58;;;;;;;;;;4995969;28;20050;-50
2021/08/29 12:39:39;;;;;;;18.42;7.32;;;;;;;;;;4995314;28;20026;-46
2021/08/29 12:42:14;;;;;;;10.13;5.22;;;;;;;;;;4995820;28;20031;-52
2021/08/29 12:44:43;;;;;;;23.65;10.23;;;;;;;;;;4995765;28;20390;-47
2021/08/29 12:47:09;;;;;;;25.08;8.27;;;;;;;;;;4996231;28;20030;-52
2021/08/29 12:49:35;;;;;;;12.48;5.72;;;;;;;;;;4996261;28;20042;-52
2021/08/29 12:52:02;;;;;;;9.38;4.40;;;;;;;;;;4996341;28;20438;-52
2021/08/29 12:54:28;;;;;;;8.60;3.83;;;;;;;;;;4996192;28;20018;-53
2021/08/29 12:56:54;;;;;;;15.75;3.63;;;;;;;;;;4996184;28;20451;-51
2021/08/29 12:59:27;;;;;;;10.02;3.25;;;;;;;;;;4996161;28;20536;-50
2021/08/29 13:02:01;;;;;;;9.02;3.15;;;;;;;;;;4995961;28;20033;-52
2021/08/29 13:04:28;;;;;;;5.10;2.72;;;;;;;;;;4996099;28;20027;-47
2021/08/29 13:07:07;;;;;;;4.07;1.88;;;;;;;;;;4995927;28;20062;-52
2021/08/29 13:09:34;;;;;;;4.35;2.70;;;;;;;;;;4995656;28;20054;-45
2021/08/29 13:12:04;;;;;;;23.67;15.25;;;;;;;;;;4994000;28;20042;-52
2021/08/29 13:14:31;;;;;;;33.17;19.40;;;;;;;;;;4995803;28;20069;-51
2021/08/29 13:17:12;;;;;;;23.45;13.02;;;;;;;;;;4995284;28;20033;-50
2021/08/29 13:19:38;;;;;;;92.97;56.25;;;;;;;;;;4995864;28;20471;-52
2021/08/29 13:22:05;;;;;;;80.70;48.03;;;;;;;;;;4995722;28;20033;-51
2021/08/29 13:24:31;;;;;;;66.25;31.38;;;;;;;;;;4995588;28;20391;-51
2021/08/29 13:27:00;;;;;;;31.05;17.33;;;;;;;;;;4995535;28;20072;-48
2021/08/29 13:29:36;;;;;;;16.67;8.65;;;;;;;;;;4995606;28;20038;-56
2021/08/29 13:32:02;;;;;;;7.85;4.05;;;;;;;;;;4995537;28;20022;-56
2021/08/29 13:34:31;;;;;;;5.85;2.60;;;;;;;;;;4995421;28;20022;-54
2021/08/29 13:36:58;;;;;;;7.20;2.60;;;;;;;;;;4995449;28;20018;-54
2021/08/29 13:39:28;;;;;;;3.55;1.98;;;;;;;;;;4995270;28;20489;-55
2021/08/29 13:42:27;;;;;;;4.13;2.00;;;;;;;;;;4969965;28;20561;-51
2021/08/29 13:44:55;;;;;;;4.15;1.88;;;;;;;;;;4936970;29;20035;-52
2021/08/29 13:47:21;;;;;;;4.57;2.65;;;;;;;;;;4937027;29;20035;-51
2021/08/29 13:49:48;;;;;;;5.32;2.70;;;;;;;;;;4937079;29;20034;-54
2021/08/29 13:52:18;;;;;;;6.38;2.50;;;;;;;;;;4936685;29;20082;-51
2021/08/29 13:54:44;;;;;;;7.93;3.85;;;;;;;;;;4936434;29;20042;-46
2021/08/29 13:57:11;;;;;;;6.32;3.05;;;;;;;;;;4936615;29;20046;-50
2021/08/29 13:59:37;;;;;;;5.22;3.70;;;;;;;;;;4936448;28;20104;-48
2021/08/29 14:02:03;;;;;;;4.78;3.33;;;;;;;;;;4936569;29;20037;-49
2021/08/29 14:04:29;;;;;;;3.10;2.60;;;;;;;;;;4936621;29;20555;-45
2021/08/29 14:06:55;;;;;;;5.57;2.75;;;;;;;;;;4936216;28;20138;-47
2021/08/29 14:09:21;;;;;;;11.90;5.15;;;;;;;;;;4935060;29;20551;-47
2021/08/29 14:11:47;;;;;;;8.05;3.75;;;;;;;;;;4936206;29;20153;-46
2021/08/29 14:14:13;;;;;;;5.72;3.00;;;;;;;;;;4936472;28;20043;-51
2021/08/29 14:16:39;;;;;;;4.65;3.55;;;;;;;;;;4936434;29;20033;-45
2021/08/29 14:19:05;;;;;;;4.45;3.88;;;;;;;;;;4936385;29;20074;-47
2021/08/29 14:21:31;;;;;;;7.10;4.68;;;;;;;;;;4963181;28;20181;-45
2021/08/29 14:24:00;;;;;;;4.78;4.28;;;;;;;;;;4965365;28;20027;-52
2021/08/29 14:26:26;;;;;;;7.65;4.57;;;;;;;;;;4964730;28;20041;-47
2021/08/29 14:28:52;;;;;;;10.60;7.00;;;;;;;;;;4964649;28;20041;-49
2021/08/29 14:31:18;;;;;;;16.73;8.32;;;;;;;;;;4964508;28;20383;-48